createdAt,value
2023-02-16T00:01:22.640Z,3.80
2023-02-16T00:03:53.183Z,3.80
2023-02-16T00:06:22.500Z,3.80
2023-02-16T00:08:53.004Z,3.80
2023-02-16T00:11:43.569Z,3.80
2023-02-16T00:14:15.685Z,3.80
2023-02-16T00:16:44.853Z,3.80
2023-02-16T00:19:18.933Z,3.70
2023-02-16T00:21:47.953Z,3.70
2023-02-16T00:24:17.660Z,3.70
2023-02-16T00:26:47.492Z,3.70
2023-02-16T00:29:22.047Z,3.70
2023-02-16T00:31:51.384Z,3.70
2023-02-16T00:34:30.657Z,3.70
2023-02-16T00:37:01.296Z,3.70
2023-02-16T00:39:30.648Z,3.70
2023-02-16T00:42:03.956Z,3.70
2023-02-16T00:44:37.100Z,3.60
2023-02-16T00:47:25.771Z,3.70
2023-02-16T00:49:55.901Z,3.70
2023-02-16T00:52:32.132Z,3.60
2023-02-16T00:55:02.664Z,3.60
2023-02-16T00:57:35.100Z,3.60
2023-02-16T01:00:08.826Z,3.60
2023-02-16T01:02:37.853Z,3.60
2023-02-16T01:05:07.534Z,3.60
2023-02-16T01:07:54.224Z,3.70
2023-02-16T01:10:41.709Z,3.70
2023-02-16T01:13:15.834Z,3.70
2023-02-16T01:15:47.043Z,3.70
2023-02-16T01:18:18.670Z,3.80
2023-02-16T01:20:50.158Z,3.80
2023-02-16T01:23:19.334Z,3.70
2023-02-16T01:25:48.501Z,3.70
2023-02-16T01:28:22.249Z,3.60
2023-02-16T01:30:53.707Z,3.60
2023-02-16T01:33:23.025Z,3.60
2023-02-16T01:35:53.488Z,3.60
2023-02-16T01:38:25.350Z,3.50
2023-02-16T01:41:03.499Z,3.50
2023-02-16T01:43:47.648Z,3.50
2023-02-16T01:46:22.559Z,3.50
2023-02-16T01:48:51.831Z,3.50
2023-02-16T01:51:25.251Z,3.50
2023-02-16T01:53:58.082Z,3.50
2023-02-16T01:56:41.036Z,3.50
2023-02-16T01:59:17.129Z,3.50
2023-02-16T02:01:54.650Z,3.50
2023-02-16T02:04:53.260Z,3.50
2023-02-16T02:07:28.790Z,3.50
2023-02-16T02:10:03.985Z,3.50
2023-02-16T02:12:40.859Z,3.50
2023-02-16T02:15:11.551Z,3.50
2023-02-16T02:17:41.903Z,3.50
2023-02-16T02:20:17.257Z,3.50
2023-02-16T02:23:29.866Z,3.50
2023-02-16T02:26:28.818Z,3.50
2023-02-16T02:29:08.998Z,3.50
2023-02-16T02:31:49.887Z,3.50
2023-02-16T02:34:29.051Z,3.50
2023-02-16T02:37:08.190Z,3.60
2023-02-16T02:39:46.575Z,3.60
2023-02-16T02:42:23.128Z,3.60
2023-02-16T02:45:02.879Z,3.60
2023-02-16T02:47:39.605Z,3.60
2023-02-16T02:51:07.477Z,3.60
2023-02-16T02:53:42.328Z,3.50
2023-02-16T02:56:31.392Z,3.50
2023-02-16T02:59:23.410Z,3.40
2023-02-16T03:01:58.735Z,3.40
2023-02-16T03:04:31.422Z,3.30
2023-02-16T03:07:02.868Z,3.30
2023-02-16T03:09:32.029Z,3.30
2023-02-16T03:12:19.349Z,3.30
2023-02-16T03:14:52.136Z,3.30
2023-02-16T03:17:44.279Z,3.30
2023-02-16T03:20:34.406Z,3.20
2023-02-16T03:23:23.967Z,3.20
2023-02-16T03:26:11.326Z,3.20
2023-02-16T03:29:01.892Z,3.20
2023-02-16T03:31:34.677Z,3.20
2023-02-16T03:34:05.285Z,3.10
2023-02-16T03:36:37.964Z,3.10
2023-02-16T03:39:08.229Z,3.10
2023-02-16T03:41:41.625Z,3.00
2023-02-16T03:44:11.038Z,3.00
2023-02-16T03:46:40.179Z,3.00
2023-02-16T03:49:10.474Z,3.00
2023-02-16T03:51:39.559Z,3.00
2023-02-16T03:54:08.547Z,3.00
2023-02-16T03:56:37.696Z,3.00
2023-02-16T03:59:06.590Z,3.00
2023-02-16T04:01:35.527Z,3.00
2023-02-16T04:04:04.643Z,3.00
2023-02-16T04:06:35.058Z,3.10
2023-02-16T04:09:04.647Z,3.10
2023-02-16T04:11:51.137Z,3.10
2023-02-16T04:14:20.192Z,3.10
2023-02-16T04:16:49.499Z,3.20
2023-02-16T04:19:18.922Z,3.20
2023-02-16T04:21:49.385Z,3.20
2023-02-16T04:24:18.342Z,3.20
2023-02-16T04:26:49.500Z,3.20
2023-02-16T04:29:18.578Z,3.20
2023-02-16T04:31:48.016Z,3.20
2023-02-16T04:34:17.223Z,3.20
2023-02-16T04:36:46.185Z,3.20
2023-02-16T04:39:16.786Z,3.30
2023-02-16T04:41:45.763Z,3.30
2023-02-16T04:44:14.930Z,3.30
2023-02-16T04:46:44.020Z,3.30
2023-02-16T04:49:13.188Z,3.30
2023-02-16T04:51:42.294Z,3.30
2023-02-16T04:54:11.270Z,3.30
2023-02-16T04:56:44.414Z,3.30
2023-02-16T04:59:13.701Z,3.30
2023-02-16T05:01:43.436Z,3.30
2023-02-16T05:04:12.907Z,3.30
2023-02-16T05:06:42.305Z,3.20
2023-02-16T05:09:11.904Z,3.20
2023-02-16T05:11:59.681Z,3.20
2023-02-16T05:14:43.295Z,3.10
2023-02-16T05:17:14.468Z,3.10
2023-02-16T05:19:45.182Z,3.10
2023-02-16T05:22:15.077Z,3.10
2023-02-16T05:24:45.174Z,3.00
2023-02-16T05:27:17.080Z,3.00
2023-02-16T05:29:46.155Z,3.00
2023-02-16T05:32:15.486Z,3.00
2023-02-16T05:34:45.539Z,3.00
2023-02-16T05:37:15.974Z,3.00
2023-02-16T05:39:45.455Z,3.00
2023-02-16T05:42:15.992Z,3.00
2023-02-16T05:44:44.976Z,3.00
2023-02-16T05:47:13.933Z,3.00
2023-02-16T05:49:42.900Z,3.00
2023-02-16T05:52:11.657Z,3.00
2023-02-16T05:54:40.587Z,2.90
2023-02-16T05:57:11.278Z,2.90
2023-02-16T05:59:41.690Z,2.90
2023-02-16T06:02:10.681Z,2.90
2023-02-16T06:04:40.398Z,2.90
2023-02-16T06:07:09.828Z,2.90
2023-02-16T06:09:38.909Z,2.90
2023-02-16T06:12:08.272Z,2.90
2023-02-16T06:14:37.333Z,3.00
2023-02-16T06:17:07.825Z,3.00
2023-02-16T06:19:37.121Z,3.10
2023-02-16T06:22:06.191Z,3.10
2023-02-16T06:24:35.378Z,3.10
2023-02-16T06:27:04.430Z,3.10
2023-02-16T06:29:33.247Z,3.20
2023-02-16T06:32:02.288Z,3.10
2023-02-16T06:34:32.702Z,3.10
2023-02-16T06:37:01.657Z,3.10
2023-02-16T06:39:30.631Z,3.10
2023-02-16T06:41:59.540Z,3.10
2023-02-16T06:44:28.680Z,3.00
2023-02-16T06:46:58.188Z,3.00
2023-02-16T06:49:27.873Z,3.00
2023-02-16T06:51:58.510Z,3.00
2023-02-16T06:54:27.579Z,3.00
2023-02-16T06:56:56.702Z,3.00
2023-02-16T06:59:26.562Z,3.00
2023-02-16T07:01:55.655Z,3.10
2023-02-16T07:04:24.706Z,3.10
2023-02-16T07:06:53.842Z,3.10
2023-02-16T07:09:24.249Z,3.10
2023-02-16T07:11:53.413Z,3.10
2023-02-16T07:14:22.755Z,3.10
2023-02-16T07:16:51.824Z,3.10
2023-02-16T07:19:20.881Z,3.10
2023-02-16T07:21:50.386Z,3.10
2023-02-16T07:24:19.437Z,3.10
2023-02-16T07:26:49.765Z,3.20
2023-02-16T07:29:19.311Z,3.20
2023-02-16T07:31:48.699Z,3.20
2023-02-16T07:34:20.787Z,3.20
2023-02-16T07:36:49.958Z,3.20
2023-02-16T07:39:19.524Z,3.20
2023-02-16T07:41:50.008Z,3.20
2023-02-16T07:44:20.445Z,3.20
2023-02-16T07:46:49.592Z,3.20
2023-02-16T07:49:18.973Z,3.20
2023-02-16T07:51:48.110Z,3.10
2023-02-16T07:54:17.514Z,3.20
2023-02-16T07:56:47.000Z,3.10
2023-02-16T07:59:17.706Z,3.10
2023-02-16T08:01:46.728Z,3.10
2023-02-16T08:04:15.920Z,3.10
2023-02-16T08:06:45.952Z,3.20
2023-02-16T08:09:14.976Z,3.30
2023-02-16T08:11:44.043Z,3.30
2023-02-16T08:14:13.089Z,3.40
2023-02-16T08:16:43.600Z,3.40
2023-02-16T08:19:13.998Z,3.50
2023-02-16T08:21:47.314Z,3.60
2023-02-16T08:24:16.714Z,3.60
2023-02-16T08:26:49.692Z,3.70
2023-02-16T08:29:19.887Z,3.70
2023-02-16T08:31:51.527Z,3.70
2023-02-16T08:34:22.857Z,3.70
2023-02-16T08:36:56.314Z,3.70
2023-02-16T08:39:27.315Z,3.70
2023-02-16T08:41:56.535Z,3.70
2023-02-16T08:44:26.235Z,3.70
2023-02-16T08:46:59.173Z,3.80
2023-02-16T08:49:28.743Z,3.80
2023-02-16T08:52:01.409Z,3.90
2023-02-16T08:54:33.268Z,4.00
2023-02-16T08:57:03.280Z,4.00
2023-02-16T08:59:34.121Z,4.10
2023-02-16T09:02:05.040Z,4.10
2023-02-16T09:04:33.965Z,4.20
2023-02-16T09:07:02.929Z,4.20
2023-02-16T09:09:32.150Z,4.30
2023-02-16T09:12:01.185Z,4.40
2023-02-16T09:14:30.259Z,4.50
2023-02-16T09:16:59.542Z,4.60
2023-02-16T09:19:30.170Z,4.70
2023-02-16T09:21:59.349Z,4.70
2023-02-16T09:24:28.590Z,4.70
2023-02-16T09:26:57.606Z,4.80
2023-02-16T09:29:26.606Z,4.80
2023-02-16T09:31:55.809Z,4.80
2023-02-16T09:34:26.239Z,4.80
2023-02-16T09:36:58.607Z,4.90
2023-02-16T09:39:28.709Z,5.00
2023-02-16T09:42:19.995Z,5.20
2023-02-16T09:44:55.617Z,5.50
2023-02-16T09:47:29.514Z,5.80
2023-02-16T09:49:59.523Z,6.20
2023-02-16T09:52:37.051Z,6.60
2023-02-16T09:55:09.430Z,7.00
2023-02-16T09:57:57.904Z,7.30
2023-02-16T10:00:37.260Z,7.70
2023-02-16T10:03:21.060Z,8.00
2023-02-16T10:05:57.198Z,8.20
2023-02-16T10:08:31.527Z,8.50
2023-02-16T10:11:06.492Z,8.80
2023-02-16T10:13:41.634Z,9.10
2023-02-16T10:16:15.708Z,9.50
2023-02-16T10:18:50.900Z,9.80
2023-02-16T10:21:26.062Z,10.10
2023-02-16T10:24:01.062Z,10.30
2023-02-16T10:26:35.305Z,10.50
2023-02-16T10:29:08.154Z,10.70
2023-02-16T10:31:42.732Z,10.90
2023-02-16T10:34:23.178Z,11.10
2023-02-16T10:37:19.116Z,11.30
2023-02-16T10:39:56.644Z,11.40
2023-02-16T10:42:32.971Z,11.60
2023-02-16T10:45:16.162Z,11.80
2023-02-16T10:47:47.170Z,12.00
2023-02-16T10:50:23.980Z,12.20
2023-02-16T10:52:57.209Z,12.50
2023-02-16T10:55:27.765Z,12.90
2023-02-16T10:58:00.034Z,13.20
2023-02-16T11:00:51.801Z,13.40
2023-02-16T11:03:27.222Z,13.50
2023-02-16T11:05:56.356Z,13.50
2023-02-16T11:08:29.205Z,13.50
2023-02-16T11:11:10.584Z,13.50
2023-02-16T11:13:39.811Z,13.60
2023-02-16T11:16:13.902Z,13.90
2023-02-16T11:18:46.933Z,14.30
2023-02-16T11:21:16.669Z,14.70
2023-02-16T11:23:59.684Z,15.30
2023-02-16T11:26:30.398Z,16.00
2023-02-16T11:29:18.794Z,16.50
2023-02-16T11:31:48.308Z,17.00
2023-02-16T11:34:32.276Z,17.50
2023-02-16T11:37:05.075Z,17.90
2023-02-16T11:39:38.218Z,18.30
2023-02-16T11:42:19.661Z,18.50
2023-02-16T11:44:54.064Z,18.80
2023-02-16T11:47:26.357Z,18.90
2023-02-16T11:50:19.917Z,19.10
2023-02-16T11:52:50.135Z,19.10
2023-02-16T11:55:27.270Z,19.00
2023-02-16T11:58:15.322Z,18.90
2023-02-16T12:00:53.687Z,18.80
2023-02-16T12:03:37.202Z,18.70
2023-02-16T12:06:26.597Z,18.60
2023-02-16T12:09:08.443Z,18.60
2023-02-16T12:11:48.393Z,18.50
2023-02-16T12:14:29.177Z,18.40
2023-02-16T12:17:05.095Z,18.20
2023-02-16T12:19:42.178Z,18.10
2023-02-16T12:22:23.568Z,18.10
2023-02-16T12:25:02.903Z,18.10
2023-02-16T12:27:38.289Z,18.20
2023-02-16T12:30:28.313Z,18.40
2023-02-16T12:33:13.032Z,18.60
2023-02-16T12:36:24.278Z,18.80
2023-02-16T12:39:02.139Z,19.10
2023-02-16T12:41:44.258Z,19.30
2023-02-16T12:44:18.912Z,19.60
2023-02-16T12:46:56.906Z,19.70
2023-02-16T12:49:29.506Z,19.70
2023-02-16T12:52:08.456Z,19.70
2023-02-16T12:54:41.588Z,19.70
2023-02-16T12:57:14.326Z,19.70
2023-02-16T12:59:48.838Z,19.60
2023-02-16T13:02:24.503Z,19.40
2023-02-16T13:05:00.780Z,19.10
2023-02-16T13:07:33.749Z,18.80
2023-02-16T13:10:08.585Z,18.40
2023-02-16T13:12:41.367Z,18.20
2023-02-16T13:15:16.294Z,18.00
2023-02-16T13:17:50.865Z,17.80
2023-02-16T13:20:23.066Z,17.50
2023-02-16T13:23:14.158Z,17.30
2023-02-16T13:26:01.109Z,17.10
2023-02-16T13:29:03.133Z,17.00
2023-02-16T13:31:47.346Z,16.90
2023-02-16T13:34:43.941Z,16.80
2023-02-16T13:37:31.778Z,16.60
2023-02-16T13:40:35.734Z,16.40
2023-02-16T13:43:30.539Z,16.00
2023-02-16T13:46:01.512Z,15.60
2023-02-16T13:48:36.763Z,15.10
2023-02-16T13:51:13.841Z,14.80
2023-02-16T13:53:44.989Z,14.30
2023-02-16T13:56:22.510Z,14.00
2023-02-16T13:58:53.123Z,13.60
2023-02-16T14:01:41.880Z,13.30
2023-02-16T14:04:55.359Z,13.00
2023-02-16T14:07:38.385Z,12.70
2023-02-16T14:10:13.720Z,12.50
2023-02-16T14:12:43.114Z,12.30
2023-02-16T14:15:20.460Z,12.10
2023-02-16T14:17:49.601Z,12.00
2023-02-16T14:20:31.164Z,11.90
2023-02-16T14:23:01.941Z,11.80
2023-02-16T14:25:37.701Z,11.70
2023-02-16T14:28:23.149Z,11.60
2023-02-16T14:30:55.769Z,11.50
2023-02-16T14:33:33.121Z,11.40
2023-02-16T14:36:14.322Z,11.40
2023-02-16T14:38:48.354Z,11.30
2023-02-16T14:41:28.157Z,11.20
2023-02-16T14:44:24.770Z,11.10
2023-02-16T14:47:04.929Z,11.00
2023-02-16T14:50:13.176Z,11.00
2023-02-16T14:53:17.226Z,10.90
2023-02-16T14:56:08.821Z,10.80
2023-02-16T14:58:45.923Z,10.80
2023-02-16T15:01:17.794Z,10.80
2023-02-16T15:03:48.811Z,10.80
2023-02-16T15:06:31.718Z,10.80
2023-02-16T15:09:06.385Z,10.80
2023-02-16T15:12:00.214Z,10.70
2023-02-16T15:14:32.589Z,10.70
2023-02-16T15:17:01.920Z,10.60
2023-02-16T15:19:32.711Z,10.60
2023-02-16T15:22:10.307Z,10.50
2023-02-16T15:24:39.676Z,10.50
2023-02-16T15:27:21.876Z,10.40
2023-02-16T15:30:05.604Z,10.40
2023-02-16T15:32:34.875Z,10.40
2023-02-16T15:35:13.456Z,10.30
2023-02-16T15:37:42.523Z,10.30
2023-02-16T15:40:26.529Z,10.30
2023-02-16T15:43:04.517Z,10.20
2023-02-16T15:45:37.802Z,10.20
2023-02-16T15:48:22.105Z,10.20
2023-02-16T15:50:53.445Z,10.10
2023-02-16T15:53:34.811Z,10.10
2023-02-16T15:56:07.568Z,10.10
2023-02-16T15:58:37.966Z,10.00
2023-02-16T16:01:07.325Z,10.00
2023-02-16T16:03:36.383Z,9.90
2023-02-16T16:06:07.318Z,9.90
2023-02-16T16:08:37.157Z,9.90
2023-02-16T16:11:06.736Z,9.90
2023-02-16T16:13:39.042Z,9.90
2023-02-16T16:16:09.925Z,9.90
2023-02-16T16:18:43.222Z,9.80
2023-02-16T16:21:23.962Z,9.80
2023-02-16T16:23:56.640Z,9.80
2023-02-16T16:26:26.350Z,9.80
2023-02-16T16:28:56.924Z,9.70
2023-02-16T16:31:41.670Z,9.70
2023-02-16T16:34:30.932Z,9.70
2023-02-16T16:37:02.524Z,9.70
2023-02-16T16:39:32.699Z,9.60
2023-02-16T16:42:15.669Z,9.60
2023-02-16T16:44:54.529Z,9.50
2023-02-16T16:47:27.266Z,9.50
2023-02-16T16:50:00.200Z,9.50
2023-02-16T16:52:35.901Z,9.40
2023-02-16T16:55:23.176Z,9.40
2023-02-16T16:57:53.972Z,9.40
2023-02-16T17:00:27.296Z,9.30
2023-02-16T17:02:56.539Z,9.30
2023-02-16T17:05:25.909Z,9.30
2023-02-16T17:07:54.916Z,9.30
2023-02-16T17:10:24.515Z,9.30
2023-02-16T17:12:57.461Z,9.20
2023-02-16T17:15:41.154Z,9.20
2023-02-16T17:18:15.806Z,9.20
2023-02-16T17:20:45.431Z,9.20
2023-02-16T17:23:17.098Z,9.20
2023-02-16T17:25:47.589Z,9.10
2023-02-16T17:28:19.658Z,9.10
2023-02-16T17:30:50.623Z,9.10
2023-02-16T17:33:20.106Z,9.10
2023-02-16T17:35:49.209Z,9.10
2023-02-16T17:38:21.606Z,9.10
2023-02-16T17:40:52.556Z,9.00
2023-02-16T17:43:23.269Z,9.00
2023-02-16T17:45:56.387Z,9.00
2023-02-16T17:48:29.219Z,9.00
2023-02-16T17:50:59.414Z,9.00
2023-02-16T17:53:29.902Z,9.00
2023-02-16T17:55:59.323Z,9.00
2023-02-16T17:58:28.269Z,8.90
2023-02-16T18:00:58.768Z,8.90
2023-02-16T18:03:30.894Z,8.90
2023-02-16T18:06:00.038Z,8.90
2023-02-16T18:08:29.094Z,8.90
2023-02-16T18:11:02.128Z,8.90
2023-02-16T18:13:31.696Z,8.90
2023-02-16T18:16:03.809Z,8.90
2023-02-16T18:18:34.813Z,8.90
2023-02-16T18:21:04.403Z,8.90
2023-02-16T18:23:33.635Z,8.90
2023-02-16T18:26:05.562Z,8.90
2023-02-16T18:28:35.948Z,8.90
2023-02-16T18:31:08.419Z,8.90
2023-02-16T18:33:37.500Z,8.90
2023-02-16T18:36:07.615Z,8.90
2023-02-16T18:38:36.845Z,8.90
2023-02-16T18:41:06.136Z,8.80
2023-02-16T18:43:35.752Z,8.90
2023-02-16T18:46:08.294Z,8.90
2023-02-16T18:48:37.559Z,8.80
2023-02-16T18:51:07.397Z,8.90
2023-02-16T18:53:38.247Z,8.80
2023-02-16T18:56:08.581Z,8.90
2023-02-16T18:58:38.196Z,8.90
2023-02-16T19:01:15.195Z,8.90
2023-02-16T19:03:44.170Z,8.90
2023-02-16T19:06:13.173Z,8.90
2023-02-16T19:08:43.036Z,8.90
2023-02-16T19:11:19.469Z,8.80
2023-02-16T19:13:48.602Z,8.90
2023-02-16T19:16:18.988Z,8.80
2023-02-16T19:18:47.981Z,8.80
2023-02-16T19:21:16.984Z,8.80
2023-02-16T19:23:46.805Z,8.80
2023-02-16T19:26:18.842Z,8.80
2023-02-16T19:28:48.242Z,8.80
2023-02-16T19:31:20.670Z,8.80
2023-02-16T19:33:49.977Z,8.70
2023-02-16T19:36:20.144Z,8.70
2023-02-16T19:38:49.559Z,8.70
2023-02-16T19:41:21.450Z,8.70
2023-02-16T19:43:50.945Z,8.60
2023-02-16T19:46:21.601Z,8.60
2023-02-16T19:48:50.708Z,8.60
2023-02-16T19:51:19.841Z,8.60
2023-02-16T19:53:49.286Z,8.60
2023-02-16T19:56:21.733Z,8.60
2023-02-16T19:58:52.013Z,8.50
2023-02-16T20:01:24.219Z,8.60
2023-02-16T20:03:54.353Z,8.50
2023-02-16T20:06:26.262Z,8.50
2023-02-16T20:08:57.674Z,8.40
2023-02-16T20:11:28.821Z,8.50
2023-02-16T20:13:58.273Z,8.40
2023-02-16T20:16:29.696Z,8.40
2023-02-16T20:18:59.516Z,8.40
2023-02-16T20:21:29.731Z,8.40
2023-02-16T20:24:00.419Z,8.40
2023-02-16T20:26:34.020Z,8.40
2023-02-16T20:29:03.885Z,8.40
2023-02-16T20:31:36.366Z,8.30
2023-02-16T20:34:06.723Z,8.30
2023-02-16T20:36:35.848Z,8.30
2023-02-16T20:39:06.361Z,8.30
2023-02-16T20:41:35.835Z,8.30
2023-02-16T20:44:05.565Z,8.20
2023-02-16T20:46:36.200Z,8.20
2023-02-16T20:49:05.356Z,8.20
2023-02-16T20:51:35.062Z,8.20
2023-02-16T20:54:04.766Z,8.20
2023-02-16T20:56:33.700Z,8.20
2023-02-16T20:59:02.882Z,8.20
2023-02-16T21:01:37.193Z,8.20
2023-02-16T21:04:09.283Z,8.20
2023-02-16T21:06:38.320Z,8.20
2023-02-16T21:09:09.113Z,8.20
2023-02-16T21:11:39.440Z,8.20
2023-02-16T21:14:09.797Z,8.10
2023-02-16T21:16:40.891Z,8.10
2023-02-16T21:19:22.239Z,8.10
2023-02-16T21:21:52.092Z,8.10
2023-02-16T21:24:21.369Z,8.10
2023-02-16T21:26:50.311Z,8.10
2023-02-16T21:29:19.248Z,8.10
2023-02-16T21:31:48.225Z,8.10
2023-02-16T21:34:18.404Z,8.10
2023-02-16T21:36:47.347Z,8.10
2023-02-16T21:39:16.621Z,8.10
2023-02-16T21:41:44.605Z,8.10
2023-02-16T21:44:15.635Z,8.10
2023-02-16T21:46:45.855Z,8.10
2023-02-16T21:49:15.817Z,8.10
2023-02-16T21:51:47.454Z,8.10
2023-02-16T21:54:39.034Z,8.10
2023-02-16T21:57:07.026Z,8.10
2023-02-16T21:59:36.370Z,8.10
2023-02-16T22:02:05.175Z,8.10
2023-02-16T22:04:34.170Z,8.10
2023-02-16T22:07:04.342Z,8.10
2023-02-16T22:09:33.152Z,8.10
2023-02-16T22:12:01.962Z,8.10
2023-02-16T22:14:31.880Z,8.10
2023-02-16T22:17:02.027Z,8.10
2023-02-16T22:19:30.979Z,8.10
2023-02-16T22:21:59.904Z,8.10
2023-02-16T22:24:30.180Z,8.10
2023-02-16T22:26:59.087Z,8.10
2023-02-16T22:29:28.230Z,8.10
2023-02-16T22:31:57.336Z,8.10
2023-02-16T22:34:26.385Z,8.10
2023-02-16T22:36:55.371Z,8.10
2023-02-16T22:39:24.461Z,8.10
2023-02-16T22:41:54.602Z,8.10
2023-02-16T22:44:23.869Z,8.10
2023-02-16T22:46:54.523Z,8.10
2023-02-16T22:49:23.652Z,8.10
2023-02-16T22:51:52.920Z,8.10
2023-02-16T22:54:23.247Z,8.10
2023-02-16T22:56:53.728Z,8.10
2023-02-16T22:59:22.827Z,8.10
2023-02-16T23:01:52.015Z,8.10
2023-02-16T23:04:21.154Z,8.10
2023-02-16T23:06:50.185Z,8.10
2023-02-16T23:09:21.388Z,8.10
2023-02-16T23:11:51.046Z,8.10
2023-02-16T23:14:21.456Z,8.00
2023-02-16T23:16:52.158Z,8.00
2023-02-16T23:19:23.164Z,8.00
2023-02-16T23:21:52.822Z,8.00
2023-02-16T23:24:23.518Z,8.00
2023-02-16T23:26:53.083Z,8.00
2023-02-16T23:29:23.433Z,8.00
2023-02-16T23:31:53.194Z,8.00
2023-02-16T23:34:22.336Z,8.00
2023-02-16T23:36:51.158Z,8.00
2023-02-16T23:39:20.033Z,7.90
2023-02-16T23:41:48.840Z,7.90
2023-02-16T23:44:17.644Z,7.90
2023-02-16T23:46:47.995Z,7.90
2023-02-16T23:49:17.001Z,7.90
2023-02-16T23:51:45.957Z,7.90
2023-02-16T23:54:14.971Z,7.90
2023-02-16T23:56:43.841Z,7.90
2023-02-16T23:59:12.889Z,7.90
